Time;durP1;ratioP1;P1;durP2;ratioP2;P2;SDS_P1;SDS_P2;PMS_P1;PMS_P2;Temp;Humidity;BMP_temperature;BMP_pressure;BME280_temperature;BME280_humidity;BME280_pressure;Samples;Min_cycle;Max_cycle;Signal;HPM_P1;HPM_P2
2022/09/09 00:00:25;;;;;;;5.72;3.25;;;16.50;99.70;;;;;;4920943;29;20118;-70
2022/09/09 00:03:02;;;;;;;2.90;2.60;;;16.50;99.70;;;;;;4923883;29;20577;-71
2022/09/09 00:06:03;;;;;;;3.75;3.38;;;16.50;99.70;;;;;;4922574;28;20043;-71
2022/09/09 00:08:38;;;;;;;3.67;3.20;;;16.50;99.60;;;;;;4921517;28;20463;-71
2022/09/09 00:11:05;;;;;;;4.05;3.65;;;16.40;99.70;;;;;;4917928;29;20381;-72
2022/09/09 00:13:54;;;;;;;3.60;3.25;;;16.40;99.70;;;;;;4919063;29;20040;-71
2022/09/09 00:16:24;;;;;;;3.35;3.00;;;16.40;99.90;;;;;;4920665;29;20051;-71
2022/09/09 00:19:08;;;;;;;3.95;3.17;;;16.40;99.90;;;;;;4921251;29;20048;-71
2022/09/09 00:21:43;;;;;;;3.50;3.20;;;16.40;99.90;;;;;;4925827;29;20273;-71
2022/09/09 00:24:46;;;;;;;3.67;3.20;;;16.40;99.90;;;;;;4925300;29;20035;-71
2022/09/09 00:27:50;;;;;;;3.45;3.13;;;16.40;99.90;;;;;;4906419;29;20044;-72
2022/09/09 00:30:37;;;;;;;6.75;3.40;;;16.40;99.90;;;;;;4884787;29;20502;-71
2022/09/09 00:33:14;;;;;;;4.05;3.13;;;16.30;99.90;;;;;;4882544;29;20083;-71
2022/09/09 00:35:47;;;;;;;6.57;3.42;;;16.30;99.90;;;;;;4911328;29;20832;-72
2022/09/09 00:38:15;;;;;;;7.55;4.05;;;16.20;99.80;;;;;;4927036;29;20031;-71
2022/09/09 00:40:59;;;;;;;3.60;3.30;;;16.30;99.80;;;;;;4926215;29;20239;-71
2022/09/09 00:43:31;;;;;;;8.10;3.90;;;16.20;99.80;;;;;;4926117;29;20031;-71
2022/09/09 00:46:17;;;;;;;4.53;3.58;;;16.20;99.90;;;;;;4924091;29;20246;-71
2022/09/09 00:48:57;;;;;;;4.13;3.03;;;16.20;99.90;;;;;;4923160;29;20024;-72
2022/09/09 00:51:57;;;;;;;5.05;3.33;;;16.20;99.90;;;;;;4922985;29;20086;-70
2022/09/09 00:54:32;;;;;;;3.50;3.20;;;16.20;99.90;;;;;;4925246;29;20449;-71
2022/09/09 00:57:27;;;;;;;3.60;3.28;;;16.20;99.90;;;;;;4923980;29;20130;-71
2022/09/09 01:00:19;;;;;;;4.72;3.65;;;16.10;99.90;;;;;;4923778;29;20055;-71
2022/09/09 01:03:04;;;;;;;4.43;3.17;;;16.20;99.90;;;;;;4913920;29;20036;-72
2022/09/09 01:05:33;;;;;;;4.03;3.28;;;16.20;99.90;;;;;;4917928;29;20688;-71
2022/09/09 01:08:02;;;;;;;5.53;3.85;;;16.10;99.90;;;;;;4923651;29;20047;-71
2022/09/09 01:10:45;;;;;;;4.28;3.55;;;16.10;99.90;;;;;;4920309;29;20119;-71
2022/09/09 01:13:21;;;;;;;5.07;3.92;;;16.10;99.90;;;;;;4918386;29;20137;-71
2022/09/09 01:15:49;;;;;;;5.57;3.50;;;16.20;99.90;;;;;;4923199;29;20035;-71
2022/09/09 01:18:19;;;;;;;4.07;3.67;;;16.20;99.90;;;;;;4927341;29;20179;-72
2022/09/09 01:20:51;;;;;;;5.72;3.80;;;16.20;99.90;;;;;;4923948;29;20027;-71
2022/09/09 01:23:35;;;;;;;4.10;3.70;;;16.20;99.90;;;;;;4923225;29;20705;-71
2022/09/09 01:26:29;;;;;;;;;;;16.20;99.90;;;;;;4919889;29;20043;-71
2022/09/09 01:28:59;;;;;;;5.10;3.30;;;16.20;99.90;;;;;;4919575;28;20791;-71
2022/09/09 01:31:42;;;;;;;5.88;4.20;;;16.20;99.90;;;;;;4921132;29;20034;-71
2022/09/09 01:34:13;;;;;;;6.15;4.60;;;16.20;99.90;;;;;;4925836;29;20119;-71
2022/09/09 01:36:44;;;;;;;4.93;3.60;;;16.10;99.90;;;;;;4939851;28;20036;-71
2022/09/09 01:39:12;;;;;;;3.75;3.45;;;16.20;99.90;;;;;;4926104;29;20034;-71
2022/09/09 01:41:38;;;;;;;4.68;4.18;;;16.20;99.90;;;;;;4923277;29;20027;-70
2022/09/09 01:44:18;;;;;;;5.38;4.05;;;16.20;99.90;;;;;;4920762;29;20036;-70
2022/09/09 01:46:44;;;;;;;3.95;3.65;;;16.20;99.90;;;;;;4925203;29;20086;-70
2022/09/09 01:49:16;;;;;;;4.05;3.35;;;16.20;99.90;;;;;;4919842;29;20092;-71
2022/09/09 01:51:43;;;;;;;3.65;3.22;;;16.10;99.90;;;;;;4922480;29;20035;-71
2022/09/09 01:54:12;;;;;;;4.90;3.70;;;16.10;99.90;;;;;;4926222;29;20066;-72
2022/09/09 01:56:55;;;;;;;11.10;4.53;;;16.10;99.90;;;;;;4925535;29;20043;-72
2022/09/09 01:59:23;;;;;;;5.47;4.18;;;16.10;99.90;;;;;;4922583;29;20128;-71
2022/09/09 02:02:17;;;;;;;5.20;4.15;;;16.10;99.90;;;;;;4929256;29;20031;-71
2022/09/09 02:04:56;;;;;;;4.32;3.67;;;16.10;99.90;;;;;;4919834;29;20050;-71
2022/09/09 02:07:40;;;;;;;3.97;3.60;;;16.10;99.90;;;;;;4925378;29;20059;-71
2022/09/09 02:10:28;;;;;;;4.07;3.58;;;16.20;99.90;;;;;;4917280;29;20048;-71
2022/09/09 02:13:13;;;;;;;7.55;3.97;;;16.20;99.90;;;;;;4922542;29;20075;-71
2022/09/09 02:15:50;;;;;;;5.45;3.63;;;16.10;99.90;;;;;;4925938;29;20617;-72
2022/09/09 02:18:23;;;;;;;6.60;3.90;;;16.10;99.90;;;;;;4921556;29;20032;-71
2022/09/09 02:20:51;;;;;;;3.78;3.22;;;16.10;99.90;;;;;;4935790;29;20035;-71
2022/09/09 02:23:17;;;;;;;5.18;4.03;;;16.10;99.90;;;;;;4921765;29;20055;-71
2022/09/09 02:25:48;;;;;;;4.38;3.92;;;16.10;99.90;;;;;;4917558;29;20676;-71
2022/09/09 02:28:23;;;;;;;5.80;4.10;;;16.10;99.90;;;;;;4924297;29;20047;-71
2022/09/09 02:30:54;;;;;;;4.85;3.83;;;16.10;99.90;;;;;;4925102;29;20035;-71
2022/09/09 02:33:26;;;;;;;5.88;3.78;;;16.10;99.90;;;;;;4924489;29;20043;-71
2022/09/09 02:35:53;;;;;;;7.10;4.63;;;16.10;99.90;;;;;;4920768;29;20103;-72
2022/09/09 02:38:26;;;;;;;5.55;4.15;;;16.10;99.90;;;;;;4923862;29;20056;-71
2022/09/09 02:41:07;;;;;;;8.38;4.30;;;16.00;99.90;;;;;;4920031;29;20533;-71
2022/09/09 02:43:35;;;;;;;4.78;3.78;;;16.00;99.90;;;;;;4916653;29;20523;-71
2022/09/09 02:46:19;;;;;;;4.32;3.70;;;16.00;99.90;;;;;;4930720;29;20036;-71
2022/09/09 02:49:15;;;;;;;5.47;4.20;;;16.00;99.80;;;;;;4933608;29;20055;-71
2022/09/09 02:51:47;;;;;;;6.82;3.85;;;16.00;99.80;;;;;;4924861;29;20023;-71
2022/09/09 02:54:39;;;;;;;4.10;2.75;;;16.00;99.70;;;;;;4924682;29;20027;-72
2022/09/09 02:57:19;;;;;;;6.18;4.13;;;15.90;99.80;;;;;;4921718;29;20939;-70
2022/09/09 02:59:48;;;;;;;9.27;4.00;;;15.90;99.90;;;;;;4920729;29;20067;-71
2022/09/09 03:02:14;;;;;;;3.97;3.58;;;15.90;99.70;;;;;;4917859;29;20032;-71
2022/09/09 03:04:50;;;;;;;3.97;3.45;;;15.90;99.70;;;;;;4919006;29;20036;-72
2022/09/09 03:07:16;;;;;;;4.50;3.50;;;15.90;99.70;;;;;;4922532;29;20047;-71
2022/09/09 03:09:44;;;;;;;4.00;3.47;;;15.80;99.80;;;;;;4935874;28;20035;-71
2022/09/09 03:12:11;;;;;;;3.92;3.50;;;15.90;99.90;;;;;;4921985;29;20031;-71
2022/09/09 03:14:38;;;;;;;4.20;3.28;;;15.80;99.90;;;;;;4925520;29;20081;-72
2022/09/09 03:17:05;;;;;;;3.13;2.83;;;15.80;99.80;;;;;;4918554;29;20032;-71
2022/09/09 03:19:37;;;;;;;5.63;3.38;;;15.80;99.80;;;;;;4919663;29;20032;-71
2022/09/09 03:22:04;;;;;;;3.58;3.10;;;15.80;99.80;;;;;;4915919;29;20433;-71
2022/09/09 03:24:32;;;;;;;3.75;3.15;;;15.80;99.70;;;;;;4917317;29;20538;-71
2022/09/09 03:26:58;;;;;;;3.83;3.42;;;15.80;99.80;;;;;;4914380;29;20114;-71
2022/09/09 03:29:24;;;;;;;3.65;3.30;;;15.80;99.80;;;;;;4922890;29;20039;-71
2022/09/09 03:31:53;;;;;;;3.80;3.05;;;15.80;99.70;;;;;;4919550;29;20408;-71
2022/09/09 03:34:19;;;;;;;3.45;3.03;;;15.80;99.60;;;;;;4923385;29;20675;-71
2022/09/09 03:36:46;;;;;;;5.70;3.35;;;15.70;99.50;;;;;;4919488;29;20031;-71
2022/09/09 03:39:11;;;;;;;5.22;2.90;;;15.70;99.50;;;;;;4922072;29;20036;-71
2022/09/09 03:41:40;;;;;;;3.90;3.10;;;15.70;99.50;;;;;;4917477;29;20028;-72
2022/09/09 03:44:06;;;;;;;5.28;3.22;;;15.70;99.50;;;;;;4914052;29;20028;-72
2022/09/09 03:46:38;;;;;;;4.68;2.63;;;15.70;99.50;;;;;;4933219;28;20070;-71
2022/09/09 03:49:03;;;;;;;4.30;3.15;;;15.70;99.50;;;;;;4921522;29;20122;-72
2022/09/09 03:51:31;;;;;;;5.35;3.25;;;15.70;99.30;;;;;;4923641;29;20472;-71
2022/09/09 03:53:58;;;;;;;6.60;3.08;;;15.70;99.30;;;;;;4922367;29;20039;-71
2022/09/09 03:56:25;;;;;;;3.08;2.78;;;15.60;99.20;;;;;;4918475;29;20511;-71
2022/09/09 03:58:52;;;;;;;5.65;2.42;;;15.60;99.30;;;;;;4918243;29;20544;-71
2022/09/09 04:01:18;;;;;;;4.68;2.83;;;15.60;99.40;;;;;;4916761;29;20075;-72
2022/09/09 04:03:45;;;;;;;3.63;2.95;;;15.60;99.40;;;;;;4916424;29;20019;-72
2022/09/09 04:06:14;;;;;;;3.58;2.75;;;15.60;99.40;;;;;;4923150;29;20057;-72
2022/09/09 04:08:41;;;;;;;3.17;2.85;;;15.50;99.40;;;;;;4938218;28;20080;-71
2022/09/09 04:11:08;;;;;;;2.45;2.08;;;15.50;99.60;;;;;;4920422;29;20519;-72
2022/09/09 04:13:40;;;;;;;3.53;2.60;;;15.50;99.60;;;;;;4922061;29;20027;-72
2022/09/09 04:16:10;;;;;;;2.95;2.65;;;15.50;99.90;;;;;;4919000;29;20044;-71
2022/09/09 04:18:37;;;;;;;3.22;2.45;;;15.50;99.70;;;;;;4933279;29;20118;-71
2022/09/09 04:21:04;;;;;;;3.60;2.58;;;15.50;99.60;;;;;;4921285;29;20054;-72
2022/09/09 04:23:31;;;;;;;2.92;2.40;;;15.50;99.40;;;;;;4916265;29;20027;-72
2022/09/09 04:25:59;;;;;;;4.93;2.63;;;15.50;99.50;;;;;;4925508;29;20028;-71
2022/09/09 04:28:28;;;;;;;3.28;2.40;;;15.50;99.80;;;;;;4921431;29;20115;-72
2022/09/09 04:30:56;;;;;;;4.93;2.50;;;15.50;99.50;;;;;;4919881;29;20150;-70
2022/09/09 04:33:26;;;;;;;2.00;1.90;;;15.50;99.50;;;;;;4922510;29;20083;-71
2022/09/09 04:35:54;;;;;;;3.38;2.60;;;15.40;99.50;;;;;;4921436;29;20028;-71
2022/09/09 04:38:25;;;;;;;3.13;2.67;;;15.40;99.60;;;;;;4922504;29;20030;-71
2022/09/09 04:40:53;;;;;;;5.00;2.55;;;15.40;99.40;;;;;;4914117;29;20473;-71
2022/09/09 04:43:20;;;;;;;3.05;2.58;;;15.40;99.40;;;;;;4919401;29;20024;-71
2022/09/09 04:45:49;;;;;;;4.50;2.40;;;15.40;99.40;;;;;;4923314;29;20039;-71
2022/09/09 04:48:15;;;;;;;3.60;2.45;;;15.40;99.60;;;;;;4919417;29;20528;-72
2022/09/09 04:50:41;;;;;;;4.82;2.30;;;15.40;99.70;;;;;;4920304;29;20143;-71
2022/09/09 04:53:09;;;;;;;3.33;2.50;;;15.40;99.60;;;;;;4919475;29;20045;-71
2022/09/09 04:55:37;;;;;;;4.90;2.40;;;15.40;99.60;;;;;;4918199;29;20035;-71
2022/09/09 04:58:05;;;;;;;5.95;2.53;;;15.40;99.60;;;;;;4914615;29;20036;-71
2022/09/09 05:00:32;;;;;;;2.10;1.92;;;15.40;99.50;;;;;;4932050;29;20349;-71
2022/09/09 05:02:57;;;;;;;2.47;1.98;;;15.40;99.50;;;;;;4922735;29;20031;-71
2022/09/09 05:05:25;;;;;;;3.67;2.17;;;15.50;99.60;;;;;;4926505;29;20031;-71
2022/09/09 05:07:52;;;;;;;2.53;2.28;;;15.50;99.70;;;;;;4924882;29;20046;-71
2022/09/09 05:10:18;;;;;;;2.50;2.30;;;15.50;99.70;;;;;;4925954;29;20036;-71
2022/09/09 05:12:53;;;;;;;2.97;2.03;;;15.50;99.60;;;;;;4910431;29;20031;-71
2022/09/09 05:15:20;;;;;;;2.83;2.03;;;15.60;99.60;;;;;;4926215;29;20032;-71
2022/09/09 05:17:46;;;;;;;2.88;2.05;;;15.60;99.70;;;;;;4924365;29;20094;-70
2022/09/09 05:20:13;;;;;;;2.83;2.00;;;15.60;99.60;;;;;;4925030;29;20039;-70
2022/09/09 05:22:38;;;;;;;6.85;2.65;;;15.60;99.60;;;;;;4925829;29;20039;-71
2022/09/09 05:25:04;;;;;;;3.67;2.20;;;15.60;99.60;;;;;;4923651;29;20032;-71
2022/09/09 05:27:31;;;;;;;3.88;2.08;;;15.60;99.60;;;;;;4938247;28;20036;-70
2022/09/09 05:29:58;;;;;;;2.88;2.47;;;15.60;99.60;;;;;;4921113;29;20032;-71
2022/09/09 05:32:24;;;;;;;3.53;2.20;;;15.60;99.80;;;;;;4926334;29;20039;-70
2022/09/09 05:34:51;;;;;;;2.28;2.00;;;15.70;99.70;;;;;;4921790;29;20032;-71
2022/09/09 05:37:18;;;;;;;2.30;1.92;;;15.70;99.80;;;;;;4924958;29;20074;-70
2022/09/09 05:39:44;;;;;;;2.10;1.90;;;15.70;99.80;;;;;;4919102;29;20042;-70
2022/09/09 05:42:10;;;;;;;3.78;2.30;;;15.70;99.80;;;;;;4925725;29;20115;-70
2022/09/09 05:44:37;;;;;;;2.05;1.80;;;15.80;99.90;;;;;;4924564;29;20087;-70
2022/09/09 05:47:03;;;;;;;3.97;2.30;;;15.80;99.90;;;;;;4920983;29;20031;-71
2022/09/09 05:49:29;;;;;;;2.90;2.30;;;15.80;99.90;;;;;;4922095;29;20110;-70
2022/09/09 05:51:55;;;;;;;5.70;2.85;;;15.80;99.90;;;;;;4918930;29;20508;-70
2022/09/09 05:54:23;;;;;;;2.55;2.33;;;15.90;99.90;;;;;;4925870;29;20036;-70
2022/09/09 05:56:52;;;;;;;5.78;2.40;;;16.00;99.90;;;;;;4923074;29;20070;-70
2022/09/09 05:59:19;;;;;;;3.70;2.20;;;16.10;99.90;;;;;;4925409;29;20056;-70
2022/09/09 06:01:45;;;;;;;8.73;2.30;;;16.10;99.90;;;;;;4924201;29;20514;-71
2022/09/09 06:04:22;;;;;;;2.97;1.90;;;16.20;99.90;;;;;;4938166;29;20074;-72
2022/09/09 06:06:48;;;;;;;4.07;1.88;;;16.30;99.90;;;;;;4921324;29;20036;-70
2022/09/09 06:09:17;;;;;;;3.22;2.03;;;16.30;99.90;;;;;;4923684;29;20063;-70
2022/09/09 06:11:43;;;;;;;2.72;2.30;;;16.40;99.90;;;;;;4919779;29;20030;-70
2022/09/09 06:14:10;;;;;;;2.65;2.10;;;16.40;99.90;;;;;;4924310;29;20491;-69
2022/09/09 06:16:37;;;;;;;2.05;1.85;;;16.50;99.90;;;;;;4917194;29;20455;-70
2022/09/09 06:19:06;;;;;;;6.10;2.50;;;16.50;99.80;;;;;;4922973;29;20079;-71
2022/09/09 06:21:38;;;;;;;5.47;2.28;;;16.50;99.80;;;;;;4923518;29;20039;-70
2022/09/09 06:24:10;;;;;;;8.50;2.20;;;16.60;99.80;;;;;;4923071;29;20032;-71
2022/09/09 06:26:41;;;;;;;4.45;2.20;;;16.60;99.60;;;;;;4922807;29;20484;-70
2022/09/09 06:29:10;;;;;;;5.15;1.80;;;16.60;99.30;;;;;;4922885;29;20040;-70
2022/09/09 06:31:37;;;;;;;7.30;2.00;;;16.70;99.20;;;;;;4918659;29;20031;-71
2022/09/09 06:34:09;;;;;;;3.35;1.95;;;16.70;98.90;;;;;;4919345;29;20036;-71
2022/09/09 06:36:39;;;;;;;3.97;1.60;;;16.80;98.70;;;;;;4920814;29;20761;-70
2022/09/09 06:39:08;;;;;;;2.63;1.50;;;16.90;98.10;;;;;;4923584;29;20031;-71
2022/09/09 06:41:34;;;;;;;4.00;1.70;;;17.00;97.90;;;;;;4922634;29;20134;-71
2022/09/09 06:44:03;;;;;;;3.08;1.50;;;17.30;97.90;;;;;;4919858;29;20024;-70
2022/09/09 06:46:35;;;;;;;2.25;1.30;;;17.40;96.60;;;;;;4920684;29;20688;-70
2022/09/09 06:49:02;;;;;;;4.88;1.80;;;17.50;96.20;;;;;;4917753;29;20064;-70
2022/09/09 06:51:34;;;;;;;7.38;1.50;;;17.60;96.20;;;;;;4918572;29;20841;-70
2022/09/09 06:54:02;;;;;;;2.40;1.48;;;17.60;95.80;;;;;;4919588;29;20496;-70
2022/09/09 06:56:37;;;;;;;2.20;1.58;;;17.70;95.60;;;;;;4936872;28;20857;-70
2022/09/09 06:59:09;;;;;;;2.45;1.30;;;17.80;95.60;;;;;;4922447;29;20040;-71
2022/09/09 07:01:41;;;;;;;2.00;1.10;;;17.80;95.30;;;;;;4936542;29;20035;-70
2022/09/09 07:04:13;;;;;;;3.30;1.50;;;17.80;95.10;;;;;;4920716;29;20062;-70
2022/09/09 07:06:46;;;;;;;1.48;1.30;;;17.90;95.10;;;;;;4921479;29;20590;-71
2022/09/09 07:09:16;;;;;;;6.47;1.73;;;17.90;95.30;;;;;;4933898;28;20504;-70
2022/09/09 07:11:47;;;;;;;2.17;1.23;;;18.10;95.60;;;;;;4931972;28;20035;-71
2022/09/09 07:14:15;;;;;;;2.67;1.60;;;18.10;96.30;;;;;;4924285;29;20055;-70
2022/09/09 07:16:45;;;;;;;4.43;1.58;;;18.30;96.20;;;;;;4938360;28;20568;-71
2022/09/09 07:19:14;;;;;;;4.82;1.50;;;18.30;96.50;;;;;;4922807;29;20087;-70
2022/09/09 07:21:41;;;;;;;2.90;1.52;;;18.40;95.40;;;;;;4937249;28;20032;-71
2022/09/09 07:24:10;;;;;;;5.43;1.60;;;18.30;95.20;;;;;;4933407;28;20508;-70
2022/09/09 07:26:39;;;;;;;3.55;1.27;;;18.30;94.80;;;;;;4933827;29;20058;-71
2022/09/09 07:29:05;;;;;;;5.03;1.50;;;18.40;94.50;;;;;;4915448;29;20032;-71
2022/09/09 07:31:34;;;;;;;6.65;1.52;;;18.40;94.60;;;;;;4916797;29;20094;-71
2022/09/09 07:34:02;;;;;;;2.65;1.27;;;18.40;94.70;;;;;;4920024;29;20764;-70
2022/09/09 07:36:32;;;;;;;4.22;1.42;;;18.50;94.60;;;;;;4935632;28;20673;-70
2022/09/09 07:39:01;;;;;;;3.90;1.75;;;18.50;94.40;;;;;;4919776;29;20498;-70
2022/09/09 07:41:35;;;;;;;4.65;1.25;;;18.50;94.20;;;;;;4920158;29;20051;-70
2022/09/09 07:44:11;;;;;;;3.67;1.10;;;18.60;94.20;;;;;;4916803;29;20032;-69
2022/09/09 07:46:41;;;;;;;2.83;1.40;;;18.60;94.20;;;;;;4918473;29;20046;-71
2022/09/09 07:49:09;;;;;;;4.35;1.52;;;18.70;94.50;;;;;;4921808;29;20040;-70
2022/09/09 07:51:38;;;;;;;3.47;1.40;;;18.80;94.30;;;;;;4916581;29;20035;-68
2022/09/09 07:54:09;;;;;;;2.15;1.33;;;18.90;93.90;;;;;;4923602;29;20031;-70
2022/09/09 07:56:37;;;;;;;1.80;1.30;;;19.00;93.70;;;;;;4936070;28;20086;-70
2022/09/09 07:59:06;;;;;;;3.53;1.50;;;19.10;93.50;;;;;;4918682;29;20692;-70
2022/09/09 08:01:39;;;;;;;3.72;1.20;;;19.20;93.40;;;;;;4935716;28;20805;-70
2022/09/09 08:04:15;;;;;;;3.60;1.17;;;19.30;93.00;;;;;;4915911;29;20122;-70
2022/09/09 08:06:52;;;;;;;3.00;1.15;;;19.40;92.70;;;;;;4917129;29;20027;-70
2022/09/09 08:09:20;;;;;;;7.07;1.30;;;19.40;92.40;;;;;;4923099;29;20032;-70
2022/09/09 08:11:48;;;;;;;1.77;1.00;;;19.40;92.40;;;;;;4926801;29;20129;-70
2022/09/09 08:14:14;;;;;;;3.08;1.15;;;19.40;92.70;;;;;;4923985;29;20039;-70
2022/09/09 08:16:47;;;;;;;5.88;1.63;;;19.40;92.50;;;;;;4922505;29;20035;-69
2022/09/09 08:19:16;;;;;;;3.15;1.27;;;19.50;92.50;;;;;;4918575;29;20036;-70
2022/09/09 08:21:44;;;;;;;0.95;0.90;;;19.60;92.30;;;;;;4918448;29;20043;-71
2022/09/09 08:24:13;;;;;;;5.38;1.58;;;19.50;91.50;;;;;;4915828;29;20041;-70
2022/09/09 08:26:46;;;;;;;3.97;1.13;;;19.50;91.50;;;;;;4922438;29;20032;-70
2022/09/09 08:29:13;;;;;;;4.68;1.60;;;19.40;91.80;;;;;;4933366;29;20038;-70
2022/09/09 08:31:51;;;;;;;2.40;1.05;;;19.40;92.00;;;;;;4922635;29;20075;-70
2022/09/09 08:34:19;;;;;;;4.47;1.25;;;19.50;92.60;;;;;;4923611;29;20032;-70
2022/09/09 08:36:49;;;;;;;3.03;1.13;;;19.50;92.30;;;;;;4934528;29;20055;-70
2022/09/09 08:39:17;;;;;;;1.70;1.20;;;19.60;92.00;;;;;;4925535;29;20031;-71
2022/09/09 08:42:02;;;;;;;3.00;1.20;;;19.60;92.10;;;;;;4921296;29;20028;-70
2022/09/09 08:44:36;;;;;;;;;;;19.70;92.00;;;;;;4921809;29;20032;-70
2022/09/09 08:47:16;;;;;;;4.57;1.20;;;19.80;91.20;;;;;;4932199;29;19966;-72
2022/09/09 08:50:01;;;;;;;2.08;1.05;;;19.60;91.70;;;;;;4927153;29;20377;-70
2022/09/09 08:53:02;;;;;;;1.80;1.30;;;19.70;91.60;;;;;;4924700;29;20444;-70
2022/09/09 08:55:47;;;;;;;4.57;1.30;;;19.80;91.70;;;;;;4921609;29;20039;-71
2022/09/09 08:58:17;;;;;;;3.70;1.30;;;19.80;92.00;;;;;;4919540;29;20505;-70
2022/09/09 09:01:22;;;;;;;1.80;1.17;;;19.80;91.90;;;;;;4936904;29;20079;-70
2022/09/09 09:04:29;;;;;;;1.95;1.27;;;19.90;92.40;;;;;;4935203;29;20028;-70
2022/09/09 09:07:35;;;;;;;6.28;1.80;;;20.00;92.30;;;;;;4914957;29;20039;-69
2022/09/09 09:10:11;;;;;;;3.20;1.17;;;20.10;92.10;;;;;;4923098;29;20035;-69
2022/09/09 09:12:42;;;;;;;3.38;1.30;;;20.30;92.20;;;;;;4925717;29;20135;-70
2022/09/09 09:15:24;;;;;;;1.65;1.10;;;20.50;91.90;;;;;;4921770;29;20036;-70
2022/09/09 09:17:51;;;;;;;3.65;1.40;;;20.60;91.40;;;;;;4919982;29;20066;-70
2022/09/09 09:20:25;;;;;;;3.05;1.13;;;20.80;90.40;;;;;;4925701;29;20426;-70
2022/09/09 09:22:59;;;;;;;3.97;1.27;;;21.00;89.80;;;;;;4919237;29;20043;-70
2022/09/09 09:25:35;;;;;;;4.70;1.50;;;21.00;90.00;;;;;;4917560;29;20027;-70
2022/09/09 09:28:17;;;;;;;3.65;1.25;;;21.10;89.30;;;;;;4914819;29;20130;-71
2022/09/09 09:30:52;;;;;;;2.63;1.15;;;21.10;89.90;;;;;;4924766;29;20530;-70
2022/09/09 09:33:43;;;;;;;7.15;1.40;;;21.20;89.30;;;;;;4922424;29;20040;-68
2022/09/09 09:36:08;;;;;;;6.45;1.10;;;21.30;89.30;;;;;;4919044;29;20495;-71
2022/09/09 09:38:37;;;;;;;4.13;1.20;;;21.40;87.10;;;;;;4919027;29;20051;-70
2022/09/09 09:41:03;;;;;;;3.35;1.15;;;21.40;87.00;;;;;;4918718;29;20059;-70
2022/09/09 09:43:32;;;;;;;3.13;1.20;;;21.40;86.70;;;;;;4930245;29;20513;-70
2022/09/09 09:46:04;;;;;;;3.97;1.40;;;21.50;86.40;;;;;;4937736;29;20779;-70
2022/09/09 09:48:30;;;;;;;7.65;1.23;;;21.60;86.20;;;;;;4936959;28;20020;-69
2022/09/09 09:51:17;;;;;;;2.42;1.02;;;21.60;85.80;;;;;;4921012;29;20027;-70
2022/09/09 09:53:45;;;;;;;4.07;1.10;;;21.60;84.80;;;;;;4902965;29;20824;-70
2022/09/09 09:56:14;;;;;;;3.08;1.20;;;21.70;85.90;;;;;;4919973;29;20453;-69
2022/09/09 09:58:44;;;;;;;3.30;0.95;;;21.90;84.60;;;;;;4924593;29;20028;-70
2022/09/09 10:01:25;;;;;;;2.33;1.15;;;22.10;84.20;;;;;;4915865;29;20028;-70
2022/09/09 10:03:53;;;;;;;3.55;1.00;;;22.30;84.00;;;;;;4921278;29;20035;-69
2022/09/09 10:06:34;;;;;;;8.63;1.27;;;22.40;82.40;;;;;;4916534;29;20054;-70
2022/09/09 10:09:01;;;;;;;4.15;1.20;;;22.60;81.20;;;;;;4921930;29;20036;-71
2022/09/09 10:11:29;;;;;;;3.97;0.95;;;23.30;80.20;;;;;;4920685;29;20135;-70
2022/09/09 10:14:02;;;;;;;2.28;1.05;;;23.50;76.90;;;;;;4922489;29;20107;-70
2022/09/09 10:16:48;;;;;;;3.97;1.00;;;23.80;77.00;;;;;;4918855;29;20043;-69
2022/09/09 10:19:27;;;;;;;4.35;1.10;;;23.70;75.80;;;;;;4921401;29;20047;-70
2022/09/09 10:21:58;;;;;;;3.78;1.05;;;23.40;77.70;;;;;;4924920;29;20032;-70
2022/09/09 10:24:39;;;;;;;2.90;1.52;;;23.30;79.80;;;;;;4925085;29;20020;-70
2022/09/09 10:27:31;;;;;;;4.57;1.10;;;23.20;77.60;;;;;;4920747;29;20118;-70
2022/09/09 10:30:12;;;;;;;4.30;0.98;;;23.00;77.00;;;;;;4922956;29;20532;-70
2022/09/09 10:32:44;;;;;;;3.00;1.00;;;23.00;77.80;;;;;;4921089;29;20127;-70
2022/09/09 10:35:13;;;;;;;3.80;1.00;;;23.00;77.80;;;;;;4919266;29;20107;-71
2022/09/09 10:37:57;;;;;;;3.42;0.93;;;22.90;78.50;;;;;;4919467;29;20032;-71
2022/09/09 10:40:32;;;;;;;3.45;0.98;;;22.90;78.70;;;;;;4918081;29;20079;-70
2022/09/09 10:43:34;;;;;;;2.85;1.02;;;23.00;78.90;;;;;;4922005;29;20171;-70
2022/09/09 10:46:06;;;;;;;3.97;1.08;;;23.10;76.00;;;;;;4916321;29;20063;-70
2022/09/09 10:48:31;;;;;;;3.15;1.00;;;23.00;76.60;;;;;;4922884;29;20035;-70
2022/09/09 10:51:00;;;;;;;4.78;0.80;;;23.00;77.60;;;;;;4920079;29;20036;-70
2022/09/09 10:53:47;;;;;;;3.42;0.80;;;23.10;76.30;;;;;;4918113;29;20027;-70
2022/09/09 10:56:16;;;;;;;2.25;0.88;;;23.20;77.80;;;;;;4922264;29;20036;-71
2022/09/09 10:59:00;;;;;;;1.60;0.65;;;23.30;76.80;;;;;;4916899;28;20118;-70
2022/09/09 11:01:44;;;;;;;2.25;0.82;;;23.30;74.40;;;;;;4921689;29;20055;-70
2022/09/09 11:04:19;;;;;;;4.25;1.20;;;23.20;73.90;;;;;;4922377;29;20091;-70
2022/09/09 11:06:52;;;;;;;1.92;0.85;;;23.20;75.40;;;;;;4922467;29;20035;-70
2022/09/09 11:09:23;;;;;;;3.70;0.90;;;23.10;74.10;;;;;;4922589;29;20040;-69
2022/09/09 11:11:57;;;;;;;3.33;0.77;;;23.10;74.60;;;;;;4919800;29;20039;-70
2022/09/09 11:14:24;;;;;;;2.22;0.90;;;23.20;75.00;;;;;;4921755;29;20083;-70
2022/09/09 11:17:01;;;;;;;2.85;0.80;;;23.10;73.00;;;;;;4916032;29;20117;-70
2022/09/09 11:19:31;;;;;;;4.93;0.98;;;23.00;72.70;;;;;;4921959;29;20035;-70
2022/09/09 11:21:59;;;;;;;3.55;0.95;;;22.90;73.30;;;;;;4924214;29;20043;-70
2022/09/09 11:24:59;;;;;;;3.10;0.70;;;23.00;73.20;;;;;;4922949;29;20034;-71
2022/09/09 11:27:37;;;;;;;2.75;0.90;;;23.10;74.00;;;;;;4921826;29;20070;-71
2022/09/09 11:30:17;;;;;;;1.60;0.65;;;23.20;73.20;;;;;;4918229;29;20044;-70
2022/09/09 11:32:54;;;;;;;4.68;0.73;;;23.20;71.30;;;;;;4918390;29;20110;-70
2022/09/09 11:35:41;;;;;;;4.25;1.10;;;23.10;72.60;;;;;;4917841;29;20087;-71
2022/09/09 11:38:18;;;;;;;3.20;0.90;;;23.00;71.70;;;;;;4918304;29;20042;-70
2022/09/09 11:40:44;;;;;;;3.03;0.90;;;23.00;73.10;;;;;;4923124;29;20807;-70
2022/09/09 11:43:51;;;;;;;3.22;0.80;;;23.00;72.60;;;;;;4921383;29;20060;-70
2022/09/09 11:46:20;;;;;;;1.58;0.70;;;23.10;72.70;;;;;;4921819;29;20298;-71
2022/09/09 11:48:58;;;;;;;3.20;0.90;;;23.10;72.00;;;;;;4919352;29;20027;-70
2022/09/09 11:51:26;;;;;;;2.63;0.70;;;23.20;73.40;;;;;;4923371;29;20071;-70
2022/09/09 11:54:02;;;;;;;3.10;0.77;;;23.20;70.80;;;;;;4917628;29;20110;-70
2022/09/09 11:56:44;;;;;;;2.42;0.80;;;23.20;71.60;;;;;;4917691;29;20043;-70
2022/09/09 11:59:21;;;;;;;2.95;0.90;;;23.30;73.10;;;;;;4922365;29;20064;-70
2022/09/09 12:01:55;;;;;;;3.20;0.80;;;23.40;70.50;;;;;;4922803;29;20064;-70
2022/09/09 12:04:24;;;;;;;3.63;0.80;;;23.50;72.10;;;;;;4920477;29;20070;-70
2022/09/09 12:06:55;;;;;;;6.43;0.90;;;23.60;70.80;;;;;;4919190;29;20071;-70
2022/09/09 12:09:29;;;;;;;1.92;0.60;;;23.70;71.70;;;;;;4918767;29;20048;-70
2022/09/09 12:12:23;;;;;;;3.60;0.63;;;23.90;70.00;;;;;;4918538;29;20510;-70
2022/09/09 12:14:59;;;;;;;2.22;0.60;;;23.90;69.00;;;;;;4924755;29;20035;-70
2022/09/09 12:17:27;;;;;;;5.22;0.88;;;23.90;68.00;;;;;;4926501;29;20031;-70
2022/09/09 12:20:17;;;;;;;4.40;1.00;;;23.80;69.40;;;;;;4924118;29;20053;-70
2022/09/09 12:22:54;;;;;;;3.83;0.82;;;23.80;69.00;;;;;;4922526;29;20028;-69
2022/09/09 12:25:35;;;;;;;6.38;0.80;;;23.80;69.20;;;;;;4923234;29;20040;-70
2022/09/09 12:28:27;;;;;;;3.65;0.90;;;23.80;67.60;;;;;;4920334;29;20040;-70
2022/09/09 12:31:17;;;;;;;2.90;0.80;;;23.90;67.60;;;;;;4921081;29;20420;-70
2022/09/09 12:33:45;;;;;;;2.97;0.70;;;24.00;67.60;;;;;;4921033;29;20039;-69
2022/09/09 12:36:29;;;;;;;5.85;0.75;;;24.00;66.80;;;;;;4926958;29;20040;-70
2022/09/09 12:38:59;;;;;;;6.00;0.85;;;24.10;67.00;;;;;;4937621;29;20448;-71
2022/09/09 12:41:27;;;;;;;2.83;0.90;;;24.10;65.80;;;;;;4924782;29;20039;-70
2022/09/09 12:44:11;;;;;;;2.25;0.82;;;24.00;65.20;;;;;;4923074;29;20039;-70
2022/09/09 12:46:42;;;;;;;4.60;1.13;;;23.90;64.90;;;;;;4923179;29;20126;-70
2022/09/09 12:49:26;;;;;;;2.38;0.80;;;23.70;65.50;;;;;;4919870;29;20408;-71
2022/09/09 12:51:52;;;;;;;2.38;0.60;;;23.60;66.00;;;;;;4918027;29;20040;-70
2022/09/09 12:54:20;;;;;;;3.58;0.90;;;23.40;66.70;;;;;;4926951;29;20036;-70
2022/09/09 12:56:47;;;;;;;3.03;0.60;;;23.40;67.90;;;;;;4926997;29;20043;-70
2022/09/09 12:59:34;;;;;;;3.35;0.77;;;23.30;67.40;;;;;;4924669;29;20135;-69
2022/09/09 13:02:00;;;;;;;4.93;0.75;;;23.30;68.30;;;;;;4923780;29;20040;-72
2022/09/09 13:04:26;;;;;;;4.90;0.85;;;23.20;67.80;;;;;;4923417;28;20123;-72
2022/09/09 13:06:52;;;;;;;3.10;0.80;;;23.20;69.00;;;;;;4919953;29;20130;-74
2022/09/09 13:09:19;;;;;;;2.00;0.70;;;23.10;68.80;;;;;;4919852;29;20036;-71
2022/09/09 13:11:52;;;;;;;1.98;0.80;;;23.00;69.20;;;;;;4920252;29;20519;-73
2022/09/09 13:14:25;;;;;;;4.38;0.93;;;22.90;70.40;;;;;;4927289;29;20376;-72
2022/09/09 13:17:00;;;;;;;4.85;1.00;;;22.80;70.50;;;;;;4922440;29;20496;-72
2022/09/09 13:19:28;;;;;;;4.15;0.95;;;22.60;71.10;;;;;;4924924;29;20023;-71